Mill Creek, Mississippi
Current Conditions -  °F | °C
As of 12:53 PM on Sunday 21 Dec 2014 (Local Time) from KASD Reporting Station
Overcast Overcast  
Wind Chill: 60°   Ceiling: 1800
Heat Index: 60°   Visibility: 10mi
Dew Point: 50°   Wind: 5mph
Humidity: 69%   Direction: 130°SE
Pressure: 30.04"   Gusts: NA
Location:  30.6922°N, 89.5187°W
Report Text: KASD 211853Z AUTO 13004KT 10SM OVC018 16/10 A3004 RMK AO2 SLP174 T01560100
Loading
Personal Weather Stations






























Interactive Weather Map New forecast layout! Learn more

10-Day Weather Forecast

Advertisements
Track Severe Weather on mobile